sensor_id;sensor_type;location;lat;lon;timestamp;P1;durP1;ratioP1;P2;durP2;ratioP2
52786;SDS011;38661;53.152;5.846;2023-06-19T00:02:20;9.15;;;8.25;;
52786;SDS011;38661;53.152;5.846;2023-06-19T00:04:46;10.55;;;9.43;;
52786;SDS011;38661;53.152;5.846;2023-06-19T00:07:11;10.10;;;9.02;;
52786;SDS011;38661;53.152;5.846;2023-06-19T00:09:37;10.48;;;9.35;;
52786;SDS011;38661;53.152;5.846;2023-06-19T00:12:03;12.13;;;9.68;;
52786;SDS011;38661;53.152;5.846;2023-06-19T00:14:29;9.82;;;8.93;;
52786;SDS011;38661;53.152;5.846;2023-06-19T00:16:55;10.05;;;9.07;;
52786;SDS011;38661;53.152;5.846;2023-06-19T00:19:21;10.35;;;9.30;;
52786;SDS011;38661;53.152;5.846;2023-06-19T00:21:47;9.73;;;8.80;;
52786;SDS011;38661;53.152;5.846;2023-06-19T00:24:13;10.38;;;9.48;;
52786;SDS011;38661;53.152;5.846;2023-06-19T00:26:39;9.95;;;9.10;;
52786;SDS011;38661;53.152;5.846;2023-06-19T00:29:05;10.57;;;9.43;;
52786;SDS011;38661;53.152;5.846;2023-06-19T00:31:32;10.82;;;9.82;;
52786;SDS011;38661;53.152;5.846;2023-06-19T00:33:57;9.43;;;8.55;;
52786;SDS011;38661;53.152;5.846;2023-06-19T00:36:23;9.75;;;8.82;;
52786;SDS011;38661;53.152;5.846;2023-06-19T00:38:51;9.65;;;8.75;;
52786;SDS011;38661;53.152;5.846;2023-06-19T00:41:17;10.45;;;8.93;;
52786;SDS011;38661;53.152;5.846;2023-06-19T00:43:43;11.05;;;8.88;;
52786;SDS011;38661;53.152;5.846;2023-06-19T00:46:09;9.43;;;8.45;;
52786;SDS011;38661;53.152;5.846;2023-06-19T00:48:36;9.73;;;8.73;;
52786;SDS011;38661;53.152;5.846;2023-06-19T00:51:02;10.85;;;8.93;;
52786;SDS011;38661;53.152;5.846;2023-06-19T00:53:28;9.80;;;8.80;;
52786;SDS011;38661;53.152;5.846;2023-06-19T00:55:56;9.80;;;8.80;;
52786;SDS011;38661;53.152;5.846;2023-06-19T00:58:22;9.32;;;8.43;;
52786;SDS011;38661;53.152;5.846;2023-06-19T01:00:48;9.13;;;8.30;;
52786;SDS011;38661;53.152;5.846;2023-06-19T01:03:14;9.57;;;8.57;;
52786;SDS011;38661;53.152;5.846;2023-06-19T01:05:41;9.85;;;8.85;;
52786;SDS011;38661;53.152;5.846;2023-06-19T01:09:08;9.20;;;8.30;;
52786;SDS011;38661;53.152;5.846;2023-06-19T01:11:08;9.65;;;8.38;;
52786;SDS011;38661;53.152;5.846;2023-06-19T01:13:47;10.13;;;8.82;;
52786;SDS011;38661;53.152;5.846;2023-06-19T01:16:19;10.13;;;9.10;;
52786;SDS011;38661;53.152;5.846;2023-06-19T01:18:46;9.73;;;8.77;;
52786;SDS011;38661;53.152;5.846;2023-06-19T01:21:13;8.93;;;8.15;;
52786;SDS011;38661;53.152;5.846;2023-06-19T01:23:40;10.57;;;8.38;;
52786;SDS011;38661;53.152;5.846;2023-06-19T01:26:06;9.38;;;8.43;;
52786;SDS011;38661;53.152;5.846;2023-06-19T01:28:33;11.32;;;9.05;;
52786;SDS011;38661;53.152;5.846;2023-06-19T01:31:02;9.20;;;8.38;;
52786;SDS011;38661;53.152;5.846;2023-06-19T01:33:52;8.75;;;7.95;;
52786;SDS011;38661;53.152;5.846;2023-06-19T01:36:21;9.73;;;8.23;;
52786;SDS011;38661;53.152;5.846;2023-06-19T01:38:48;9.18;;;8.15;;
52786;SDS011;38661;53.152;5.846;2023-06-19T01:41:15;9.80;;;8.90;;
52786;SDS011;38661;53.152;5.846;2023-06-19T01:43:42;9.38;;;8.48;;
52786;SDS011;38661;53.152;5.846;2023-06-19T01:46:09;11.25;;;8.38;;
52786;SDS011;38661;53.152;5.846;2023-06-19T01:48:35;10.38;;;8.35;;
52786;SDS011;38661;53.152;5.846;2023-06-19T01:51:01;9.90;;;8.90;;
52786;SDS011;38661;53.152;5.846;2023-06-19T01:53:29;9.00;;;8.10;;
52786;SDS011;38661;53.152;5.846;2023-06-19T01:55:56;9.30;;;8.40;;
52786;SDS011;38661;53.152;5.846;2023-06-19T01:58:22;9.35;;;8.25;;
52786;SDS011;38661;53.152;5.846;2023-06-19T02:00:48;9.32;;;8.38;;
52786;SDS011;38661;53.152;5.846;2023-06-19T02:03:14;9.07;;;8.15;;
52786;SDS011;38661;53.152;5.846;2023-06-19T02:05:39;9.70;;;7.82;;
52786;SDS011;38661;53.152;5.846;2023-06-19T02:08:05;8.77;;;7.90;;
52786;SDS011;38661;53.152;5.846;2023-06-19T02:10:31;9.70;;;7.85;;
52786;SDS011;38661;53.152;5.846;2023-06-19T02:12:57;9.88;;;8.88;;
52786;SDS011;38661;53.152;5.846;2023-06-19T02:15:23;10.50;;;8.90;;
52786;SDS011;38661;53.152;5.846;2023-06-19T02:17:49;12.15;;;9.40;;
52786;SDS011;38661;53.152;5.846;2023-06-19T02:20:20;12.20;;;9.07;;
52786;SDS011;38661;53.152;5.846;2023-06-19T02:22:51;10.20;;;9.20;;
52786;SDS011;38661;53.152;5.846;2023-06-19T02:25:17;10.55;;;9.10;;
52786;SDS011;38661;53.152;5.846;2023-06-19T02:27:44;10.05;;;9.07;;
52786;SDS011;38661;53.152;5.846;2023-06-19T02:30:09;11.18;;;9.50;;
52786;SDS011;38661;53.152;5.846;2023-06-19T02:32:35;10.05;;;9.10;;
52786;SDS011;38661;53.152;5.846;2023-06-19T02:35:01;10.07;;;9.13;;
52786;SDS011;38661;53.152;5.846;2023-06-19T02:37:28;9.70;;;8.73;;
52786;SDS011;38661;53.152;5.846;2023-06-19T02:39:54;9.80;;;8.90;;
52786;SDS011;38661;53.152;5.846;2023-06-19T02:42:20;9.70;;;8.70;;
52786;SDS011;38661;53.152;5.846;2023-06-19T02:44:46;10.82;;;9.45;;
52786;SDS011;38661;53.152;5.846;2023-06-19T02:47:11;11.00;;;9.90;;
52786;SDS011;38661;53.152;5.846;2023-06-19T02:49:37;10.40;;;9.40;;
52786;SDS011;38661;53.152;5.846;2023-06-19T02:52:03;12.32;;;9.93;;
52786;SDS011;38661;53.152;5.846;2023-06-19T02:54:29;12.20;;;9.82;;
52786;SDS011;38661;53.152;5.846;2023-06-19T02:56:55;13.35;;;10.30;;
52786;SDS011;38661;53.152;5.846;2023-06-19T02:59:21;11.63;;;10.43;;
52786;SDS011;38661;53.152;5.846;2023-06-19T03:01:47;11.73;;;10.52;;
52786;SDS011;38661;53.152;5.846;2023-06-19T03:04:12;11.15;;;9.98;;
52786;SDS011;38661;53.152;5.846;2023-06-19T03:06:38;12.02;;;10.80;;
52786;SDS011;38661;53.152;5.846;2023-06-19T03:09:07;12.98;;;10.82;;
52786;SDS011;38661;53.152;5.846;2023-06-19T03:11:40;10.85;;;9.90;;
52786;SDS011;38661;53.152;5.846;2023-06-19T03:14:06;10.18;;;9.27;;
52786;SDS011;38661;53.152;5.846;2023-06-19T03:16:33;13.02;;;9.98;;
52786;SDS011;38661;53.152;5.846;2023-06-19T03:18:59;10.52;;;9.52;;
52786;SDS011;38661;53.152;5.846;2023-06-19T03:21:25;11.02;;;9.77;;
52786;SDS011;38661;53.152;5.846;2023-06-19T03:23:52;11.57;;;10.40;;
52786;SDS011;38661;53.152;5.846;2023-06-19T03:26:18;10.98;;;9.73;;
52786;SDS011;38661;53.152;5.846;2023-06-19T03:28:44;10.98;;;9.88;;
52786;SDS011;38661;53.152;5.846;2023-06-19T03:31:13;11.60;;;10.48;;
52786;SDS011;38661;53.152;5.846;2023-06-19T03:33:40;10.70;;;9.48;;
52786;SDS011;38661;53.152;5.846;2023-06-19T03:36:05;10.65;;;8.10;;
52786;SDS011;38661;53.152;5.846;2023-06-19T03:38:31;7.93;;;7.15;;
52786;SDS011;38661;53.152;5.846;2023-06-19T03:40:57;6.78;;;6.18;;
52786;SDS011;38661;53.152;5.846;2023-06-19T03:43:23;7.03;;;6.03;;
52786;SDS011;38661;53.152;5.846;2023-06-19T03:45:48;7.05;;;4.68;;
52786;SDS011;38661;53.152;5.846;2023-06-19T03:48:15;5.45;;;4.60;;
52786;SDS011;38661;53.152;5.846;2023-06-19T03:50:41;7.20;;;4.28;;
52786;SDS011;38661;53.152;5.846;2023-06-19T03:53:07;5.90;;;3.60;;
52786;SDS011;38661;53.152;5.846;2023-06-19T03:55:33;5.72;;;3.20;;
52786;SDS011;38661;53.152;5.846;2023-06-19T03:57:58;4.72;;;3.67;;
52786;SDS011;38661;53.152;5.846;2023-06-19T04:00:24;4.90;;;3.25;;
52786;SDS011;38661;53.152;5.846;2023-06-19T04:02:50;9.00;;;4.00;;
52786;SDS011;38661;53.152;5.846;2023-06-19T04:05:15;4.30;;;3.40;;
52786;SDS011;38661;53.152;5.846;2023-06-19T04:07:41;6.72;;;3.85;;
52786;SDS011;38661;53.152;5.846;2023-06-19T04:10:07;6.97;;;3.78;;
52786;SDS011;38661;53.152;5.846;2023-06-19T04:12:33;6.20;;;3.90;;
52786;SDS011;38661;53.152;5.846;2023-06-19T04:14:58;8.27;;;4.03;;
52786;SDS011;38661;53.152;5.846;2023-06-19T04:17:24;6.18;;;4.60;;
52786;SDS011;38661;53.152;5.846;2023-06-19T04:19:50;6.95;;;4.30;;
52786;SDS011;38661;53.152;5.846;2023-06-19T04:22:15;8.18;;;3.83;;
52786;SDS011;38661;53.152;5.846;2023-06-19T04:24:41;4.18;;;3.78;;
52786;SDS011;38661;53.152;5.846;2023-06-19T04:27:07;6.95;;;3.70;;
52786;SDS011;38661;53.152;5.846;2023-06-19T04:29:33;4.55;;;3.78;;
52786;SDS011;38661;53.152;5.846;2023-06-19T04:32:00;6.57;;;3.28;;
52786;SDS011;38661;53.152;5.846;2023-06-19T04:34:28;5.10;;;4.20;;
52786;SDS011;38661;53.152;5.846;2023-06-19T04:36:54;5.03;;;3.60;;
52786;SDS011;38661;53.152;5.846;2023-06-19T04:39:23;7.30;;;3.78;;
52786;SDS011;38661;53.152;5.846;2023-06-19T04:41:49;4.22;;;3.80;;
52786;SDS011;38661;53.152;5.846;2023-06-19T04:44:15;4.85;;;3.90;;
52786;SDS011;38661;53.152;5.846;2023-06-19T04:46:41;8.60;;;4.20;;
52786;SDS011;38661;53.152;5.846;2023-06-19T04:49:09;4.22;;;3.80;;
52786;SDS011;38661;53.152;5.846;2023-06-19T04:51:34;6.38;;;3.63;;
52786;SDS011;38661;53.152;5.846;2023-06-19T04:54:01;6.38;;;4.47;;
52786;SDS011;38661;53.152;5.846;2023-06-19T04:56:27;4.35;;;3.72;;
52786;SDS011;38661;53.152;5.846;2023-06-19T04:58:53;5.05;;;4.55;;
52786;SDS011;38661;53.152;5.846;2023-06-19T05:01:24;8.30;;;4.95;;
52786;SDS011;38661;53.152;5.846;2023-06-19T05:03:53;5.55;;;4.47;;
52786;SDS011;38661;53.152;5.846;2023-06-19T05:06:20;6.47;;;5.20;;
52786;SDS011;38661;53.152;5.846;2023-06-19T05:08:46;7.30;;;4.68;;
52786;SDS011;38661;53.152;5.846;2023-06-19T05:11:12;8.13;;;5.60;;
52786;SDS011;38661;53.152;5.846;2023-06-19T05:13:38;6.07;;;5.47;;
52786;SDS011;38661;53.152;5.846;2023-06-19T05:16:04;9.95;;;7.38;;
52786;SDS011;38661;53.152;5.846;2023-06-19T05:18:29;10.55;;;7.75;;
52786;SDS011;38661;53.152;5.846;2023-06-19T05:20:55;10.48;;;9.45;;
52786;SDS011;38661;53.152;5.846;2023-06-19T05:23:21;11.60;;;10.45;;
52786;SDS011;38661;53.152;5.846;2023-06-19T05:25:46;14.73;;;11.25;;
52786;SDS011;38661;53.152;5.846;2023-06-19T05:28:12;11.57;;;10.38;;
52786;SDS011;38661;53.152;5.846;2023-06-19T05:30:38;16.52;;;14.45;;
52786;SDS011;38661;53.152;5.846;2023-06-19T05:33:03;19.20;;;17.20;;
52786;SDS011;38661;53.152;5.846;2023-06-19T05:35:29;20.08;;;17.88;;
52786;SDS011;38661;53.152;5.846;2023-06-19T05:37:55;23.00;;;19.85;;
52786;SDS011;38661;53.152;5.846;2023-06-19T05:40:21;26.35;;;22.13;;
52786;SDS011;38661;53.152;5.846;2023-06-19T05:42:46;26.10;;;22.55;;
52786;SDS011;38661;53.152;5.846;2023-06-19T05:45:12;32.35;;;28.88;;
52786;SDS011;38661;53.152;5.846;2023-06-19T05:47:38;29.92;;;26.63;;
52786;SDS011;38661;53.152;5.846;2023-06-19T05:50:04;36.88;;;32.15;;
52786;SDS011;38661;53.152;5.846;2023-06-19T05:52:29;35.42;;;31.73;;
52786;SDS011;38661;53.152;5.846;2023-06-19T05:54:55;38.13;;;33.47;;
52786;SDS011;38661;53.152;5.846;2023-06-19T05:57:23;40.83;;;34.63;;
52786;SDS011;38661;53.152;5.846;2023-06-19T05:59:49;38.08;;;34.13;;
52786;SDS011;38661;53.152;5.846;2023-06-19T06:02:15;39.72;;;35.22;;
52786;SDS011;38661;53.152;5.846;2023-06-19T06:04:42;40.20;;;35.92;;
52786;SDS011;38661;53.152;5.846;2023-06-19T06:07:08;36.08;;;32.25;;
52786;SDS011;38661;53.152;5.846;2023-06-19T06:09:34;31.05;;;27.75;;
52786;SDS011;38661;53.152;5.846;2023-06-19T06:11:59;29.77;;;26.65;;
52786;SDS011;38661;53.152;5.846;2023-06-19T06:14:25;30.65;;;26.83;;
52786;SDS011;38661;53.152;5.846;2023-06-19T06:16:51;32.03;;;27.58;;
52786;SDS011;38661;53.152;5.846;2023-06-19T06:19:19;31.85;;;26.50;;
52786;SDS011;38661;53.152;5.846;2023-06-19T06:21:47;28.02;;;23.95;;
52786;SDS011;38661;53.152;5.846;2023-06-19T06:24:13;30.95;;;25.50;;
52786;SDS011;38661;53.152;5.846;2023-06-19T06:26:39;32.67;;;29.20;;
52786;SDS011;38661;53.152;5.846;2023-06-19T06:29:04;32.92;;;29.48;;
52786;SDS011;38661;53.152;5.846;2023-06-19T06:31:30;35.08;;;31.08;;
52786;SDS011;38661;53.152;5.846;2023-06-19T06:33:56;38.80;;;31.55;;
52786;SDS011;38661;53.152;5.846;2023-06-19T06:36:22;38.20;;;29.67;;
52786;SDS011;38661;53.152;5.846;2023-06-19T06:38:47;40.47;;;32.83;;
52786;SDS011;38661;53.152;5.846;2023-06-19T06:41:13;41.13;;;32.88;;
52786;SDS011;38661;53.152;5.846;2023-06-19T06:43:40;39.33;;;32.85;;
52786;SDS011;38661;53.152;5.846;2023-06-19T06:46:08;43.83;;;33.53;;
52786;SDS011;38661;53.152;5.846;2023-06-19T06:48:35;42.97;;;34.88;;
52786;SDS011;38661;53.152;5.846;2023-06-19T06:51:04;47.45;;;34.72;;
52786;SDS011;38661;53.152;5.846;2023-06-19T06:53:30;44.05;;;29.90;;
52786;SDS011;38661;53.152;5.846;2023-06-19T06:55:59;37.35;;;27.65;;
52786;SDS011;38661;53.152;5.846;2023-06-19T06:58:25;40.63;;;27.30;;
52786;SDS011;38661;53.152;5.846;2023-06-19T07:00:51;39.80;;;29.30;;
52786;SDS011;38661;53.152;5.846;2023-06-19T07:03:18;39.67;;;28.02;;
52786;SDS011;38661;53.152;5.846;2023-06-19T07:05:44;40.13;;;28.58;;
52786;SDS011;38661;53.152;5.846;2023-06-19T07:08:09;39.22;;;27.60;;
52786;SDS011;38661;53.152;5.846;2023-06-19T07:10:35;37.65;;;25.02;;
52786;SDS011;38661;53.152;5.846;2023-06-19T07:13:01;35.85;;;26.58;;
52786;SDS011;38661;53.152;5.846;2023-06-19T07:15:27;35.47;;;25.83;;
52786;SDS011;38661;53.152;5.846;2023-06-19T07:17:53;36.15;;;26.58;;
52786;SDS011;38661;53.152;5.846;2023-06-19T07:20:18;35.92;;;24.35;;
52786;SDS011;38661;53.152;5.846;2023-06-19T07:22:44;40.95;;;27.83;;
52786;SDS011;38661;53.152;5.846;2023-06-19T07:25:10;33.92;;;26.40;;
52786;SDS011;38661;53.152;5.846;2023-06-19T07:27:37;34.30;;;22.73;;
52786;SDS011;38661;53.152;5.846;2023-06-19T07:30:03;36.72;;;25.83;;
52786;SDS011;38661;53.152;5.846;2023-06-19T07:32:29;36.80;;;26.38;;
52786;SDS011;38661;53.152;5.846;2023-06-19T07:34:55;33.17;;;22.77;;
52786;SDS011;38661;53.152;5.846;2023-06-19T07:37:20;33.83;;;24.17;;
52786;SDS011;38661;53.152;5.846;2023-06-19T07:39:47;32.50;;;22.83;;
52786;SDS011;38661;53.152;5.846;2023-06-19T07:42:14;29.55;;;21.42;;
52786;SDS011;38661;53.152;5.846;2023-06-19T07:44:41;25.83;;;19.23;;
52786;SDS011;38661;53.152;5.846;2023-06-19T07:47:07;24.42;;;17.77;;
52786;SDS011;38661;53.152;5.846;2023-06-19T07:49:34;23.48;;;18.27;;
52786;SDS011;38661;53.152;5.846;2023-06-19T07:52:00;20.50;;;16.65;;
52786;SDS011;38661;53.152;5.846;2023-06-19T07:54:27;22.50;;;16.40;;
52786;SDS011;38661;53.152;5.846;2023-06-19T07:56:52;19.08;;;16.30;;
52786;SDS011;38661;53.152;5.846;2023-06-19T07:59:18;20.77;;;17.75;;
52786;SDS011;38661;53.152;5.846;2023-06-19T08:01:44;21.35;;;16.05;;
52786;SDS011;38661;53.152;5.846;2023-06-19T08:04:10;17.77;;;15.30;;
52786;SDS011;38661;53.152;5.846;2023-06-19T08:06:35;20.25;;;16.55;;
52786;SDS011;38661;53.152;5.846;2023-06-19T08:09:01;20.70;;;15.05;;
52786;SDS011;38661;53.152;5.846;2023-06-19T08:11:27;20.65;;;14.88;;
52786;SDS011;38661;53.152;5.846;2023-06-19T08:13:53;17.73;;;14.82;;
52786;SDS011;38661;53.152;5.846;2023-06-19T08:16:20;20.05;;;15.52;;
52786;SDS011;38661;53.152;5.846;2023-06-19T08:18:45;19.55;;;14.68;;
52786;SDS011;38661;53.152;5.846;2023-06-19T08:21:12;18.67;;;15.45;;
52786;SDS011;38661;53.152;5.846;2023-06-19T08:23:38;19.15;;;16.35;;
52786;SDS011;38661;53.152;5.846;2023-06-19T08:26:04;20.52;;;14.70;;
52786;SDS011;38661;53.152;5.846;2023-06-19T08:28:31;22.02;;;16.15;;
52786;SDS011;38661;53.152;5.846;2023-06-19T08:30:57;20.15;;;16.25;;
52786;SDS011;38661;53.152;5.846;2023-06-19T08:33:23;20.25;;;14.82;;
52786;SDS011;38661;53.152;5.846;2023-06-19T08:35:49;19.42;;;16.33;;
52786;SDS011;38661;53.152;5.846;2023-06-19T08:38:15;19.30;;;16.63;;
52786;SDS011;38661;53.152;5.846;2023-06-19T08:40:44;18.52;;;16.20;;
52786;SDS011;38661;53.152;5.846;2023-06-19T08:43:10;17.95;;;16.05;;
52786;SDS011;38661;53.152;5.846;2023-06-19T08:45:36;21.20;;;17.58;;
52786;SDS011;38661;53.152;5.846;2023-06-19T08:48:03;21.92;;;16.65;;
52786;SDS011;38661;53.152;5.846;2023-06-19T08:50:33;22.38;;;17.52;;
52786;SDS011;38661;53.152;5.846;2023-06-19T08:52:58;22.65;;;18.70;;
52786;SDS011;38661;53.152;5.846;2023-06-19T08:55:24;21.15;;;16.85;;
52786;SDS011;38661;53.152;5.846;2023-06-19T08:57:51;20.75;;;16.92;;
52786;SDS011;38661;53.152;5.846;2023-06-19T09:00:27;22.45;;;17.15;;
52786;SDS011;38661;53.152;5.846;2023-06-19T09:02:59;24.27;;;17.38;;
52786;SDS011;38661;53.152;5.846;2023-06-19T09:05:27;21.92;;;16.52;;
52786;SDS011;38661;53.152;5.846;2023-06-19T09:07:56;20.70;;;17.55;;
52786;SDS011;38661;53.152;5.846;2023-06-19T09:10:25;20.70;;;16.53;;
52786;SDS011;38661;53.152;5.846;2023-06-19T09:15:31;23.13;;;15.35;;
52786;SDS011;38661;53.152;5.846;2023-06-19T09:18:02;21.65;;;15.02;;
52786;SDS011;38661;53.152;5.846;2023-06-19T09:20:33;20.08;;;14.45;;
52786;SDS011;38661;53.152;5.846;2023-06-19T09:23:01;17.17;;;14.70;;
52786;SDS011;38661;53.152;5.846;2023-06-19T09:25:27;22.10;;;17.08;;
52786;SDS011;38661;53.152;5.846;2023-06-19T09:27:53;20.42;;;17.65;;
52786;SDS011;38661;53.152;5.846;2023-06-19T09:30:19;19.80;;;16.90;;
52786;SDS011;38661;53.152;5.846;2023-06-19T09:32:45;22.10;;;16.95;;
52786;SDS011;38661;53.152;5.846;2023-06-19T09:35:11;17.83;;;15.68;;
52786;SDS011;38661;53.152;5.846;2023-06-19T09:37:37;19.60;;;15.70;;
52786;SDS011;38661;53.152;5.846;2023-06-19T09:40:05;22.00;;;17.45;;
52786;SDS011;38661;53.152;5.846;2023-06-19T09:42:43;23.88;;;15.75;;
52786;SDS011;38661;53.152;5.846;2023-06-19T09:45:11;19.67;;;16.38;;
52786;SDS011;38661;53.152;5.846;2023-06-19T09:47:44;23.10;;;15.27;;
52786;SDS011;38661;53.152;5.846;2023-06-19T09:50:11;24.60;;;17.27;;
52786;SDS011;38661;53.152;5.846;2023-06-19T09:52:39;18.88;;;16.83;;
52786;SDS011;38661;53.152;5.846;2023-06-19T09:55:07;19.75;;;17.65;;
52786;SDS011;38661;53.152;5.846;2023-06-19T09:57:34;23.73;;;18.48;;
52786;SDS011;38661;53.152;5.846;2023-06-19T10:00:03;20.25;;;16.88;;
52786;SDS011;38661;53.152;5.846;2023-06-19T10:02:37;22.48;;;17.05;;
52786;SDS011;38661;53.152;5.846;2023-06-19T10:05:08;21.80;;;16.73;;
52786;SDS011;38661;53.152;5.846;2023-06-19T10:07:37;21.48;;;17.40;;
52786;SDS011;38661;53.152;5.846;2023-06-19T10:10:07;20.83;;;17.55;;
52786;SDS011;38661;53.152;5.846;2023-06-19T10:15:22;25.35;;;17.70;;
52786;SDS011;38661;53.152;5.846;2023-06-19T10:17:50;23.83;;;16.27;;
52786;SDS011;38661;53.152;5.846;2023-06-19T10:20:21;24.35;;;17.90;;
52786;SDS011;38661;53.152;5.846;2023-06-19T10:22:58;17.45;;;15.25;;
52786;SDS011;38661;53.152;5.846;2023-06-19T10:25:24;20.05;;;16.88;;
52786;SDS011;38661;53.152;5.846;2023-06-19T10:27:53;20.67;;;17.65;;
52786;SDS011;38661;53.152;5.846;2023-06-19T10:30:19;17.67;;;15.88;;
52786;SDS011;38661;53.152;5.846;2023-06-19T10:32:46;18.92;;;15.82;;
52786;SDS011;38661;53.152;5.846;2023-06-19T10:35:16;18.40;;;15.23;;
52786;SDS011;38661;53.152;5.846;2023-06-19T10:37:43;18.52;;;14.23;;
52786;SDS011;38661;53.152;5.846;2023-06-19T10:40:12;23.83;;;17.20;;
52786;SDS011;38661;53.152;5.846;2023-06-19T10:42:38;24.02;;;17.17;;
52786;SDS011;38661;53.152;5.846;2023-06-19T10:45:08;21.35;;;18.40;;
52786;SDS011;38661;53.152;5.846;2023-06-19T10:47:37;23.60;;;19.08;;
52786;SDS011;38661;53.152;5.846;2023-06-19T10:50:04;22.52;;;19.05;;
52786;SDS011;38661;53.152;5.846;2023-06-19T10:52:44;22.15;;;19.70;;
52786;SDS011;38661;53.152;5.846;2023-06-19T10:55:11;25.10;;;19.90;;
52786;SDS011;38661;53.152;5.846;2023-06-19T10:57:38;23.50;;;18.02;;
52786;SDS011;38661;53.152;5.846;2023-06-19T11:00:10;26.33;;;20.85;;
52786;SDS011;38661;53.152;5.846;2023-06-19T11:02:38;21.85;;;19.00;;
52786;SDS011;38661;53.152;5.846;2023-06-19T11:05:06;24.73;;;20.38;;
52786;SDS011;38661;53.152;5.846;2023-06-19T11:07:31;24.15;;;20.35;;
52786;SDS011;38661;53.152;5.846;2023-06-19T11:09:58;21.30;;;17.70;;
52786;SDS011;38661;53.152;5.846;2023-06-19T11:12:23;21.10;;;16.95;;
52786;SDS011;38661;53.152;5.846;2023-06-19T11:14:49;20.65;;;17.90;;
52786;SDS011;38661;53.152;5.846;2023-06-19T11:17:18;20.75;;;16.35;;
52786;SDS011;38661;53.152;5.846;2023-06-19T11:19:46;19.02;;;16.45;;
52786;SDS011;38661;53.152;5.846;2023-06-19T11:22:12;24.85;;;19.83;;
52786;SDS011;38661;53.152;5.846;2023-06-19T11:24:47;21.40;;;17.95;;
52786;SDS011;38661;53.152;5.846;2023-06-19T11:27:17;18.33;;;15.73;;
52786;SDS011;38661;53.152;5.846;2023-06-19T11:29:55;20.13;;;16.67;;
52786;SDS011;38661;53.152;5.846;2023-06-19T11:32:23;19.13;;;15.90;;
52786;SDS011;38661;53.152;5.846;2023-06-19T11:34:56;18.88;;;16.05;;
52786;SDS011;38661;53.152;5.846;2023-06-19T11:37:22;18.25;;;16.30;;
52786;SDS011;38661;53.152;5.846;2023-06-19T11:39:49;18.13;;;16.23;;
52786;SDS011;38661;53.152;5.846;2023-06-19T11:42:17;18.02;;;16.13;;
52786;SDS011;38661;53.152;5.846;2023-06-19T11:44:55;14.95;;;13.02;;
52786;SDS011;38661;53.152;5.846;2023-06-19T11:47:22;15.10;;;13.65;;
52786;SDS011;38661;53.152;5.846;2023-06-19T11:49:48;16.33;;;14.52;;
52786;SDS011;38661;53.152;5.846;2023-06-19T11:52:15;17.17;;;14.02;;
52786;SDS011;38661;53.152;5.846;2023-06-19T11:54:41;16.05;;;14.20;;
52786;SDS011;38661;53.152;5.846;2023-06-19T11:57:06;18.42;;;13.45;;
52786;SDS011;38661;53.152;5.846;2023-06-19T11:59:37;17.00;;;13.57;;
52786;SDS011;38661;53.152;5.846;2023-06-19T12:02:06;16.48;;;14.75;;
52786;SDS011;38661;53.152;5.846;2023-06-19T12:04:32;12.82;;;11.52;;
52786;SDS011;38661;53.152;5.846;2023-06-19T12:06:58;17.35;;;12.73;;
52786;SDS011;38661;53.152;5.846;2023-06-19T12:09:24;18.65;;;13.07;;
52786;SDS011;38661;53.152;5.846;2023-06-19T12:11:50;15.30;;;13.18;;
52786;SDS011;38661;53.152;5.846;2023-06-19T12:14:16;14.63;;;13.02;;
52786;SDS011;38661;53.152;5.846;2023-06-19T12:16:43;14.40;;;12.93;;
52786;SDS011;38661;53.152;5.846;2023-06-19T12:19:10;15.05;;;13.45;;
52786;SDS011;38661;53.152;5.846;2023-06-19T12:21:36;11.75;;;10.60;;
52786;SDS011;38661;53.152;5.846;2023-06-19T12:24:02;14.73;;;11.77;;
52786;SDS011;38661;53.152;5.846;2023-06-19T12:26:27;12.02;;;10.27;;
52786;SDS011;38661;53.152;5.846;2023-06-19T12:28:53;12.85;;;10.48;;
52786;SDS011;38661;53.152;5.846;2023-06-19T12:31:19;12.50;;;10.63;;
52786;SDS011;38661;53.152;5.846;2023-06-19T12:33:44;14.10;;;10.57;;
52786;SDS011;38661;53.152;5.846;2023-06-19T12:36:13;13.15;;;9.23;;
52786;SDS011;38661;53.152;5.846;2023-06-19T12:38:41;10.40;;;9.40;;
52786;SDS011;38661;53.152;5.846;2023-06-19T12:41:07;12.00;;;9.13;;
52786;SDS011;38661;53.152;5.846;2023-06-19T12:43:33;12.50;;;10.73;;
52786;SDS011;38661;53.152;5.846;2023-06-19T12:45:58;12.50;;;11.07;;
52786;SDS011;38661;53.152;5.846;2023-06-19T12:48:25;14.15;;;10.98;;
52786;SDS011;38661;53.152;5.846;2023-06-19T12:50:52;11.80;;;10.55;;
52786;SDS011;38661;53.152;5.846;2023-06-19T12:53:17;11.68;;;9.93;;
52786;SDS011;38661;53.152;5.846;2023-06-19T12:55:43;11.27;;;9.98;;
52786;SDS011;38661;53.152;5.846;2023-06-19T12:58:09;10.77;;;9.68;;
52786;SDS011;38661;53.152;5.846;2023-06-19T13:00:36;13.40;;;12.00;;
52786;SDS011;38661;53.152;5.846;2023-06-19T13:03:02;11.85;;;10.05;;
52786;SDS011;38661;53.152;5.846;2023-06-19T13:05:31;11.82;;;10.50;;
52786;SDS011;38661;53.152;5.846;2023-06-19T13:07:56;12.73;;;10.63;;
52786;SDS011;38661;53.152;5.846;2023-06-19T13:10:22;11.85;;;10.75;;
52786;SDS011;38661;53.152;5.846;2023-06-19T13:12:48;13.13;;;10.65;;
52786;SDS011;38661;53.152;5.846;2023-06-19T13:15:13;14.27;;;11.55;;
52786;SDS011;38661;53.152;5.846;2023-06-19T13:17:39;13.95;;;12.05;;
52786;SDS011;38661;53.152;5.846;2023-06-19T13:20:05;12.68;;;10.90;;
52786;SDS011;38661;53.152;5.846;2023-06-19T13:22:31;12.25;;;10.05;;
52786;SDS011;38661;53.152;5.846;2023-06-19T13:24:57;13.95;;;12.43;;
52786;SDS011;38661;53.152;5.846;2023-06-19T13:27:23;10.77;;;9.68;;
52786;SDS011;38661;53.152;5.846;2023-06-19T13:29:49;11.80;;;10.15;;
52786;SDS011;38661;53.152;5.846;2023-06-19T13:32:15;14.45;;;10.15;;
52786;SDS011;38661;53.152;5.846;2023-06-19T13:34:41;11.65;;;8.18;;
52786;SDS011;38661;53.152;5.846;2023-06-19T13:37:07;9.60;;;8.05;;
52786;SDS011;38661;53.152;5.846;2023-06-19T13:39:34;11.50;;;10.15;;
52786;SDS011;38661;53.152;5.846;2023-06-19T13:42:00;12.57;;;8.88;;
52786;SDS011;38661;53.152;5.846;2023-06-19T13:44:26;12.70;;;9.15;;
52786;SDS011;38661;53.152;5.846;2023-06-19T13:46:52;10.07;;;8.40;;
52786;SDS011;38661;53.152;5.846;2023-06-19T13:49:19;11.15;;;8.77;;
52786;SDS011;38661;53.152;5.846;2023-06-19T13:51:45;11.23;;;9.52;;
52786;SDS011;38661;53.152;5.846;2023-06-19T13:54:11;8.48;;;7.57;;
52786;SDS011;38661;53.152;5.846;2023-06-19T13:56:38;8.88;;;6.95;;
52786;SDS011;38661;53.152;5.846;2023-06-19T13:59:07;9.25;;;7.80;;
52786;SDS011;38661;53.152;5.846;2023-06-19T14:01:33;9.68;;;7.20;;
52786;SDS011;38661;53.152;5.846;2023-06-19T14:03:59;8.07;;;7.00;;
52786;SDS011;38661;53.152;5.846;2023-06-19T14:06:27;9.27;;;6.30;;
52786;SDS011;38661;53.152;5.846;2023-06-19T14:08:53;9.02;;;6.65;;
52786;SDS011;38661;53.152;5.846;2023-06-19T14:11:19;10.55;;;8.27;;
52786;SDS011;38661;53.152;5.846;2023-06-19T14:13:47;11.68;;;8.35;;
52786;SDS011;38661;53.152;5.846;2023-06-19T14:16:14;7.68;;;6.97;;
52786;SDS011;38661;53.152;5.846;2023-06-19T14:18:39;7.22;;;6.53;;
52786;SDS011;38661;53.152;5.846;2023-06-19T14:21:05;8.25;;;6.60;;
52786;SDS011;38661;53.152;5.846;2023-06-19T14:23:31;7.28;;;6.60;;
52786;SDS011;38661;53.152;5.846;2023-06-19T14:25:59;7.65;;;5.95;;
52786;SDS011;38661;53.152;5.846;2023-06-19T14:28:25;9.57;;;7.18;;
52786;SDS011;38661;53.152;5.846;2023-06-19T14:30:50;7.65;;;5.97;;
52786;SDS011;38661;53.152;5.846;2023-06-19T14:33:16;9.10;;;7.13;;
52786;SDS011;38661;53.152;5.846;2023-06-19T14:35:42;9.70;;;6.82;;